createdAt,value
2023-05-15T00:00:52.256Z,94.62
2023-05-15T00:01:52.247Z,94.62
2023-05-15T00:02:52.336Z,94.52
2023-05-15T00:03:52.363Z,94.56
2023-05-15T00:04:52.222Z,94.56
2023-05-15T00:05:52.196Z,94.56
2023-05-15T00:06:52.170Z,94.56
2023-05-15T00:07:52.160Z,94.56
2023-05-15T00:08:52.144Z,94.67
2023-05-15T00:09:52.151Z,94.60
2023-05-15T00:11:00.818Z,94.60
2023-05-15T00:11:53.118Z,94.60
2023-05-15T00:12:52.102Z,94.71
2023-05-15T00:13:52.096Z,94.71
2023-05-15T00:14:52.096Z,94.71
2023-05-15T00:15:52.180Z,94.75
2023-05-15T00:16:52.044Z,94.96
2023-05-15T00:17:52.063Z,94.96
2023-05-15T00:18:52.100Z,95.06
2023-05-15T00:19:52.008Z,94.96
2023-05-15T00:20:51.985Z,94.96
2023-05-15T00:21:51.971Z,95.06
2023-05-15T00:22:51.953Z,95.06
2023-05-15T00:23:51.953Z,94.96
2023-05-15T00:24:51.941Z,94.96
2023-05-15T00:25:51.919Z,95.06
2023-05-15T00:26:51.916Z,95.06
2023-05-15T00:27:51.901Z,95.21
2023-05-15T00:28:51.909Z,95.10
2023-05-15T00:29:51.884Z,95.10
2023-05-15T00:30:51.869Z,95.21
2023-05-15T00:31:51.965Z,95.21
2023-05-15T00:32:51.916Z,95.21
2023-05-15T00:33:51.828Z,95.21
2023-05-15T00:34:51.812Z,95.21
2023-05-15T00:35:51.805Z,95.21
2023-05-15T00:36:51.788Z,95.31
2023-05-15T00:37:51.792Z,95.41
2023-05-15T00:38:51.763Z,95.41
2023-05-15T00:39:51.748Z,95.46
2023-05-15T00:40:51.738Z,95.41
2023-05-15T00:41:51.727Z,95.36
2023-05-15T00:42:51.709Z,95.36
2023-05-15T00:43:51.699Z,95.36
2023-05-15T00:44:51.676Z,95.36
2023-05-15T00:45:51.662Z,95.36
2023-05-15T00:46:51.670Z,95.36
2023-05-15T00:47:51.688Z,95.36
2023-05-15T00:48:51.617Z,95.36
2023-05-15T00:49:51.612Z,95.36
2023-05-15T00:50:51.601Z,95.46
2023-05-15T00:51:51.602Z,95.46
2023-05-15T00:52:51.585Z,95.46
2023-05-15T00:53:51.626Z,95.46
2023-05-15T00:54:51.564Z,95.56
2023-05-15T00:55:51.547Z,95.56
2023-05-15T00:56:58.557Z,95.56
2023-05-15T00:57:51.526Z,95.56
2023-05-15T00:58:51.500Z,95.56
2023-05-15T00:59:51.475Z,95.56
2023-05-15T01:00:51.482Z,95.66
2023-05-15T01:01:51.473Z,95.56
2023-05-15T01:02:51.484Z,95.56
2023-05-15T01:03:51.433Z,95.56
2023-05-15T01:04:51.408Z,95.56
2023-05-15T01:05:51.422Z,95.56
2023-05-15T01:06:51.401Z,95.56
2023-05-15T01:07:51.389Z,95.56
2023-05-15T01:08:51.376Z,95.46
2023-05-15T01:09:51.349Z,95.56
2023-05-15T01:10:51.340Z,95.56
2023-05-15T01:11:51.337Z,95.56
2023-05-15T01:12:51.332Z,95.66
2023-05-15T01:13:51.311Z,95.56
2023-05-15T01:14:51.299Z,95.56
2023-05-15T01:15:51.293Z,95.46
2023-05-15T01:16:51.270Z,95.46
2023-05-15T01:17:51.307Z,95.56
2023-05-15T01:18:51.284Z,95.46
2023-05-15T01:19:51.363Z,95.46
2023-05-15T01:20:51.207Z,95.40
2023-05-15T01:21:51.199Z,95.40
2023-05-15T01:22:51.184Z,95.50
2023-05-15T01:23:51.180Z,95.50
2023-05-15T01:24:51.171Z,95.61
2023-05-15T01:25:51.149Z,95.61
2023-05-15T01:26:51.132Z,95.61
2023-05-15T01:27:51.121Z,95.50
2023-05-15T01:28:51.111Z,95.50
2023-05-15T01:29:51.103Z,95.50
2023-05-15T01:30:51.073Z,95.50
2023-05-15T01:31:51.119Z,95.50
2023-05-15T01:32:51.139Z,95.40
2023-05-15T01:33:51.061Z,95.40
2023-05-15T01:34:51.034Z,95.44
2023-05-15T01:35:51.025Z,95.44
2023-05-15T01:36:50.984Z,95.54
2023-05-15T01:37:50.980Z,95.54
2023-05-15T01:38:50.993Z,95.44
2023-05-15T01:39:50.957Z,95.54
2023-05-15T01:40:50.955Z,95.54
2023-05-15T01:41:50.932Z,95.54
2023-05-15T01:42:50.929Z,95.54
2023-05-15T01:43:50.912Z,95.54
2023-05-15T01:44:50.898Z,95.54
2023-05-15T01:45:50.881Z,95.54
2023-05-15T01:46:50.947Z,95.54
2023-05-15T01:47:50.877Z,95.54
2023-05-15T01:48:50.840Z,95.65
2023-05-15T01:49:50.824Z,95.65
2023-05-15T01:50:50.819Z,95.65
2023-05-15T01:51:50.804Z,95.75
2023-05-15T01:52:50.792Z,95.75
2023-05-15T01:53:50.781Z,95.86
2023-05-15T01:54:50.760Z,95.95
2023-05-15T01:55:50.754Z,95.95
2023-05-15T01:56:50.747Z,95.95
2023-05-15T01:57:50.741Z,95.95
2023-05-15T01:58:50.711Z,95.95
2023-05-15T01:59:50.698Z,95.95
2023-05-15T02:00:50.699Z,95.95
2023-05-15T02:01:50.743Z,95.95
2023-05-15T02:02:50.715Z,95.95
2023-05-15T02:03:50.751Z,95.95
2023-05-15T02:04:50.636Z,95.95
2023-05-15T02:05:50.634Z,95.95
2023-05-15T02:06:50.650Z,95.95
2023-05-15T02:07:50.589Z,95.95
2023-05-15T02:08:50.583Z,95.90
2023-05-15T02:09:50.562Z,95.79
2023-05-15T02:10:50.567Z,95.90
2023-05-15T02:11:50.555Z,95.90
2023-05-15T02:12:50.541Z,95.90
2023-05-15T02:13:50.533Z,95.90
2023-05-15T02:14:50.500Z,95.90
2023-05-15T02:15:50.539Z,95.90
2023-05-15T02:16:50.476Z,95.90
2023-05-15T02:17:50.514Z,95.90
2023-05-15T02:18:50.470Z,95.90
2023-05-15T02:19:50.460Z,95.90
2023-05-15T02:20:50.423Z,95.90
2023-05-15T02:21:50.413Z,95.79
2023-05-15T02:22:50.388Z,95.79
2023-05-15T02:23:50.395Z,95.90
2023-05-15T02:24:50.392Z,95.90
2023-05-15T02:25:50.400Z,95.90
2023-05-15T02:26:50.346Z,95.90
2023-05-15T02:27:50.334Z,95.90
2023-05-15T02:28:50.314Z,95.90
2023-05-15T02:29:50.306Z,95.90
2023-05-15T02:30:50.298Z,95.90
2023-05-15T02:31:50.307Z,96.00
2023-05-15T02:32:50.321Z,96.00
2023-05-15T02:33:50.245Z,95.90
2023-05-15T02:34:50.256Z,95.94
2023-05-15T02:35:50.234Z,95.94
2023-05-15T02:36:50.214Z,96.04
2023-05-15T02:37:50.201Z,95.94
2023-05-15T02:38:50.178Z,95.94
2023-05-15T02:39:50.186Z,95.94
2023-05-15T02:40:50.145Z,95.94
2023-05-15T02:41:50.147Z,95.94
2023-05-15T02:42:50.120Z,95.84
2023-05-15T02:43:50.119Z,95.84
2023-05-15T02:44:50.118Z,95.84
2023-05-15T02:45:50.147Z,95.84
2023-05-15T02:46:50.069Z,95.84
2023-05-15T02:47:50.146Z,95.94
2023-05-15T02:48:50.066Z,96.04
2023-05-15T02:49:50.056Z,96.04
2023-05-15T02:50:50.027Z,96.15
2023-05-15T02:51:50.018Z,96.15
2023-05-15T02:52:50.018Z,96.15
2023-05-15T02:53:50.004Z,96.15
2023-05-15T02:54:49.976Z,96.15
2023-05-15T02:55:49.969Z,96.19
2023-05-15T02:56:49.952Z,96.19
2023-05-15T02:57:49.938Z,96.19
2023-05-15T02:58:49.923Z,96.19
2023-05-15T02:59:49.913Z,96.19
2023-05-15T03:00:49.919Z,96.19
2023-05-15T03:01:49.889Z,96.19
2023-05-15T03:02:49.950Z,96.19
2023-05-15T03:03:49.939Z,96.19
2023-05-15T03:04:49.849Z,96.19
2023-05-15T03:05:49.834Z,96.09
2023-05-15T03:06:49.817Z,96.09
2023-05-15T03:07:49.816Z,96.19
2023-05-15T03:08:49.794Z,96.19
2023-05-15T03:09:49.787Z,96.09
2023-05-15T03:10:49.762Z,96.09
2023-05-15T03:11:49.763Z,96.09
2023-05-15T03:12:49.748Z,96.09
2023-05-15T03:13:49.728Z,96.09
2023-05-15T03:14:49.713Z,96.09
2023-05-15T03:15:49.818Z,96.09
2023-05-15T03:16:49.740Z,96.09
2023-05-15T03:17:49.728Z,96.09
2023-05-15T03:18:49.721Z,96.09
2023-05-15T03:19:49.655Z,96.03
2023-05-15T03:20:49.633Z,95.93
2023-05-15T03:21:49.617Z,96.03
2023-05-15T03:22:49.609Z,96.03
2023-05-15T03:23:49.593Z,96.03
2023-05-15T03:24:49.577Z,95.93
2023-05-15T03:25:49.568Z,96.03
2023-05-15T03:26:49.560Z,96.03
2023-05-15T03:27:49.536Z,96.14
2023-05-15T03:28:49.540Z,96.14
2023-05-15T03:29:49.519Z,96.14
2023-05-15T03:30:49.511Z,96.14
2023-05-15T03:31:49.538Z,96.14
2023-05-15T03:32:49.511Z,96.14
2023-05-15T03:33:49.469Z,96.14
2023-05-15T03:34:49.444Z,96.14
2023-05-15T03:35:49.448Z,96.14
2023-05-15T03:36:49.440Z,96.14
2023-05-15T03:37:49.409Z,96.14
2023-05-15T03:38:49.401Z,96.18
2023-05-15T03:39:49.389Z,96.18
2023-05-15T03:40:51.139Z,96.18
2023-05-15T03:41:49.363Z,96.18
2023-05-15T03:42:49.338Z,96.18
2023-05-15T03:43:49.338Z,96.18
2023-05-15T03:44:49.335Z,96.18
2023-05-15T03:45:49.314Z,96.18
2023-05-15T03:46:49.347Z,96.18
2023-05-15T03:47:49.315Z,96.08
2023-05-15T03:48:49.277Z,96.08
2023-05-15T03:49:49.254Z,96.08
2023-05-15T04:03:35.913Z,96.43
2023-05-15T04:04:35.819Z,96.43
2023-05-15T04:05:35.904Z,96.43
2023-05-15T04:06:35.787Z,96.43
2023-05-15T04:07:35.783Z,96.33
2023-05-15T04:08:35.781Z,96.33
2023-05-15T04:09:35.774Z,96.43
2023-05-15T04:10:35.755Z,96.43
2023-05-15T04:11:35.736Z,96.43
2023-05-15T04:12:35.721Z,96.43
2023-05-15T04:13:35.725Z,96.43
2023-05-15T04:14:35.688Z,96.33
2023-05-15T04:15:35.679Z,96.43
2023-05-15T04:16:35.698Z,96.33
2023-05-15T04:17:35.691Z,96.43
2023-05-15T04:18:35.727Z,96.33
2023-05-15T04:19:35.626Z,96.33
2023-05-15T04:20:35.616Z,96.33
2023-05-15T04:21:35.604Z,96.33
2023-05-15T04:22:35.594Z,96.33
2023-05-15T04:23:35.587Z,96.43
2023-05-15T04:24:35.573Z,96.43
2023-05-15T04:25:35.554Z,96.39
2023-05-15T04:26:35.574Z,96.43
2023-05-15T04:27:35.527Z,96.43
2023-05-15T04:28:35.506Z,96.48
2023-05-15T04:29:35.507Z,96.48
2023-05-15T04:30:35.466Z,96.39
2023-05-15T04:31:35.563Z,96.39
2023-05-15T04:32:35.479Z,96.39
2023-05-15T04:33:35.443Z,96.39
2023-05-15T04:34:35.424Z,96.39
2023-05-15T04:35:35.421Z,96.39
2023-05-15T04:36:35.419Z,96.39
2023-05-15T04:37:35.399Z,96.28
2023-05-15T04:38:35.379Z,96.39
2023-05-15T04:39:35.377Z,96.28
2023-05-15T04:40:35.354Z,96.28
2023-05-15T04:41:35.336Z,96.28
2023-05-15T04:42:35.325Z,96.28
2023-05-15T04:43:35.295Z,96.28
2023-05-15T04:44:35.304Z,96.28
2023-05-15T04:45:35.280Z,96.28
2023-05-15T04:46:35.302Z,96.28
2023-05-15T04:47:35.317Z,96.28
2023-05-15T04:48:35.272Z,96.28
2023-05-15T04:49:35.238Z,96.28
2023-05-15T04:50:35.225Z,96.28
2023-05-15T04:51:35.225Z,96.28
2023-05-15T04:52:35.196Z,96.28
2023-05-15T04:53:35.179Z,96.28
2023-05-15T04:54:35.157Z,96.39
2023-05-15T04:55:35.173Z,96.39
2023-05-15T04:56:35.142Z,96.39
2023-05-15T04:57:35.132Z,96.39
2023-05-15T04:58:35.108Z,96.39
2023-05-15T04:59:35.102Z,96.44
2023-05-15T05:00:35.114Z,96.44
2023-05-15T05:01:35.135Z,96.44
2023-05-15T05:02:35.132Z,96.44
2023-05-15T05:03:35.069Z,96.44
2023-05-15T05:04:35.043Z,96.55
2023-05-15T05:05:35.035Z,96.55
2023-05-15T05:06:35.014Z,96.55
2023-05-15T05:07:34.994Z,96.50
2023-05-15T05:08:34.984Z,96.50
2023-05-15T05:09:34.990Z,96.50
2023-05-15T05:10:34.961Z,96.50
2023-05-15T05:11:34.943Z,96.40
2023-05-15T05:12:34.943Z,96.30
2023-05-15T05:13:34.953Z,96.30
2023-05-15T05:14:34.969Z,96.34
2023-05-15T05:15:34.895Z,96.34
2023-05-15T05:16:35.096Z,96.34
2023-05-15T05:17:34.934Z,96.34
2023-05-15T05:18:34.917Z,96.34
2023-05-15T05:19:34.864Z,96.34
2023-05-15T05:20:34.853Z,96.34
2023-05-15T05:21:34.819Z,96.34
2023-05-15T05:22:34.804Z,96.34
2023-05-15T05:23:34.807Z,96.44
2023-05-15T05:24:34.770Z,96.34
2023-05-15T05:25:34.766Z,96.44
2023-05-15T05:26:34.758Z,96.44
2023-05-15T05:27:34.735Z,96.40
2023-05-15T05:28:34.735Z,96.50
2023-05-15T05:29:34.736Z,96.50
2023-05-15T05:30:34.695Z,96.50
2023-05-15T05:31:34.714Z,96.50
2023-05-15T05:32:34.713Z,96.56
2023-05-15T05:33:34.678Z,96.56
2023-05-15T05:34:34.656Z,96.56
2023-05-15T05:35:34.636Z,96.56
2023-05-15T05:36:34.618Z,96.66
2023-05-15T05:37:34.627Z,96.62
2023-05-15T05:38:34.598Z,96.62
2023-05-15T05:39:34.581Z,96.62
2023-05-15T05:40:34.550Z,96.62
2023-05-15T05:41:34.561Z,96.62
2023-05-15T05:42:34.545Z,96.57
2023-05-15T05:43:34.524Z,96.47
2023-05-15T05:44:34.518Z,96.47
2023-05-15T05:45:34.511Z,96.47
2023-05-15T05:46:34.531Z,96.42
2023-05-15T05:47:34.546Z,96.42
2023-05-15T05:48:34.498Z,96.42
2023-05-15T05:49:34.459Z,96.32
2023-05-15T05:50:34.423Z,96.32
2023-05-15T05:51:34.436Z,96.22
2023-05-15T05:52:34.421Z,96.22
2023-05-15T05:53:34.400Z,96.17
2023-05-15T05:54:34.402Z,96.17
2023-05-15T05:55:34.420Z,96.07
2023-05-15T05:56:34.377Z,96.07
2023-05-15T05:57:34.366Z,95.97
2023-05-15T05:58:34.324Z,95.97
2023-05-15T05:59:34.321Z,95.92
2023-05-15T06:00:34.314Z,95.92
2023-05-15T06:01:34.302Z,96.03
2023-05-15T06:02:34.388Z,96.03
2023-05-15T06:03:34.315Z,95.92
2023-05-15T06:04:34.573Z,95.98
2023-05-15T06:05:34.245Z,95.98
2023-05-15T06:06:34.224Z,95.98
2023-05-15T06:07:34.215Z,95.98
2023-05-15T06:08:34.216Z,95.84
2023-05-15T06:09:34.191Z,95.84
2023-05-15T06:10:34.197Z,95.73
2023-05-15T06:11:34.154Z,95.73
2023-05-15T06:12:34.156Z,95.73
2023-05-15T06:13:34.138Z,95.63
2023-05-15T06:14:34.132Z,95.59
2023-05-15T06:15:34.124Z,95.59
2023-05-15T06:16:34.154Z,95.59
2023-05-15T06:17:34.125Z,95.59
2023-05-15T06:18:34.093Z,95.54
2023-05-15T06:19:34.056Z,95.44
2023-05-15T06:20:34.059Z,95.44
2023-05-15T06:21:34.035Z,95.44
2023-05-15T06:22:34.018Z,95.39
2023-05-15T06:23:34.005Z,95.29
2023-05-15T06:24:34.009Z,95.19
2023-05-15T06:25:33.995Z,95.09
2023-05-15T06:26:33.985Z,95.09
2023-05-15T06:27:33.959Z,95.09
2023-05-15T06:28:33.950Z,94.94
2023-05-15T06:29:33.945Z,94.84
2023-05-15T06:30:33.971Z,94.74
2023-05-15T06:31:33.988Z,94.74
2023-05-15T06:32:34.567Z,94.64
2023-05-15T06:33:33.882Z,94.49
2023-05-15T06:34:33.881Z,94.38
2023-05-15T06:35:33.866Z,94.08
2023-05-15T06:36:33.862Z,93.98
2023-05-15T06:37:33.825Z,93.98
2023-05-15T06:38:33.827Z,93.88
2023-05-15T06:39:33.828Z,93.73
2023-05-15T06:40:33.799Z,93.63
2023-05-15T06:41:33.793Z,93.52
2023-05-15T06:42:33.776Z,93.52
2023-05-15T06:43:33.781Z,93.43
2023-05-15T06:44:33.768Z,93.43
2023-05-15T06:45:33.724Z,93.32
2023-05-15T06:46:33.785Z,93.02
2023-05-15T06:47:33.737Z,92.87
2023-05-15T06:48:33.694Z,92.77
2023-05-15T06:49:33.668Z,92.67
2023-05-15T06:50:33.671Z,92.26
2023-05-15T06:51:33.654Z,92.01
2023-05-15T06:52:33.657Z,91.81
2023-05-15T06:53:33.632Z,91.81
2023-05-15T06:54:33.607Z,91.61
2023-05-15T06:55:33.598Z,91.40
2023-05-15T06:56:33.600Z,91.09
2023-05-15T06:57:33.614Z,90.95
2023-05-15T06:58:33.556Z,90.75
2023-05-15T06:59:33.545Z,90.75
2023-05-15T07:00:33.532Z,90.64
2023-05-15T07:01:33.594Z,89.99
2023-05-15T07:02:33.541Z,89.79
2023-05-15T07:03:33.498Z,89.48
2023-05-15T07:04:33.499Z,89.48
2023-05-15T07:05:33.470Z,89.34
2023-05-15T07:06:33.475Z,89.03
2023-05-15T07:07:33.457Z,89.14
2023-05-15T07:08:33.445Z,89.03
2023-05-15T07:09:33.413Z,88.73
2023-05-15T07:10:33.485Z,88.59
2023-05-15T07:11:33.410Z,88.18
2023-05-15T07:12:33.386Z,88.18
2023-05-15T07:13:33.368Z,87.77
2023-05-15T07:14:33.364Z,87.37
2023-05-15T07:15:33.341Z,87.37
2023-05-15T07:16:33.367Z,87.47
2023-05-15T07:17:33.441Z,87.43
2023-05-15T07:18:33.384Z,86.92
2023-05-15T07:19:33.404Z,87.23
2023-05-15T07:20:34.999Z,87.32
2023-05-15T07:21:33.282Z,87.02
2023-05-15T07:22:38.518Z,87.12
2023-05-15T07:23:34.247Z,86.21
2023-05-15T07:24:33.225Z,86.21
2023-05-15T07:25:33.224Z,86.57
2023-05-15T07:26:40.819Z,86.27
2023-05-15T07:27:34.191Z,86.27
2023-05-15T07:28:33.175Z,85.35
2023-05-15T07:29:33.171Z,85.46
2023-05-15T07:30:33.169Z,85.66
2023-05-15T07:31:33.186Z,85.86
2023-05-15T07:32:33.173Z,85.92
2023-05-15T07:33:33.128Z,85.01
2023-05-15T07:34:33.122Z,85.21
2023-05-15T07:35:33.121Z,84.20
2023-05-15T07:36:33.096Z,83.89
2023-05-15T07:37:33.067Z,84.40
2023-05-15T07:38:33.076Z,83.89
2023-05-15T07:39:33.066Z,83.79
2023-05-15T07:40:33.040Z,83.85
2023-05-15T07:41:33.016Z,84.16
2023-05-15T07:42:33.004Z,84.16
2023-05-15T07:43:32.992Z,83.31
2023-05-15T07:44:32.979Z,82.29
2023-05-15T07:45:33.049Z,81.78
2023-05-15T07:46:33.014Z,82.19
2023-05-15T07:47:33.005Z,82.29
2023-05-15T07:48:32.929Z,82.56
2023-05-15T07:49:32.908Z,82.96
2023-05-15T07:50:32.899Z,82.66
2023-05-15T07:51:32.873Z,83.12
2023-05-15T07:52:32.881Z,81.20
2023-05-15T07:53:32.869Z,81.60
2023-05-15T07:54:32.845Z,81.20
2023-05-15T07:55:32.841Z,80.99
2023-05-15T07:56:32.837Z,80.90
2023-05-15T07:57:32.799Z,80.69
2023-05-15T07:58:32.818Z,80.55
2023-05-15T07:59:32.819Z,80.35
2023-05-15T08:00:32.770Z,80.35
2023-05-15T08:01:33.002Z,80.65
2023-05-15T08:02:32.812Z,80.52
2023-05-15T08:03:32.773Z,79.91
2023-05-15T08:04:32.735Z,79.77
2023-05-15T08:05:32.688Z,79.67
2023-05-15T08:06:32.689Z,79.53
2023-05-15T08:07:32.690Z,77.71
2023-05-15T08:08:32.658Z,77.40
2023-05-15T08:09:32.646Z,76.70
2023-05-15T08:10:32.634Z,76.90
2023-05-15T08:11:32.619Z,77.20
2023-05-15T08:12:32.650Z,76.73
2023-05-15T08:13:32.594Z,77.34
2023-05-15T08:14:32.621Z,78.25
2023-05-15T08:15:32.639Z,78.35
2023-05-15T08:16:32.610Z,78.86
2023-05-15T08:17:32.584Z,79.97
2023-05-15T08:18:32.586Z,79.26
2023-05-15T08:19:32.521Z,78.82
2023-05-15T08:20:32.513Z,77.64
2023-05-15T08:21:32.495Z,77.75
2023-05-15T08:22:32.479Z,77.84
2023-05-15T08:23:32.473Z,78.05
2023-05-15T08:24:32.441Z,77.75
2023-05-15T08:25:32.439Z,77.64
2023-05-15T08:26:32.442Z,77.64
2023-05-15T08:27:32.417Z,78.05
2023-05-15T08:28:32.422Z,77.95
2023-05-15T08:29:32.379Z,77.24
2023-05-15T08:30:32.377Z,77.14
2023-05-15T08:31:32.404Z,77.40
2023-05-15T08:32:32.372Z,77.40
2023-05-15T08:33:32.324Z,77.40
2023-05-15T08:34:32.323Z,76.79
2023-05-15T08:35:32.384Z,77.17
2023-05-15T08:36:32.333Z,77.87
2023-05-15T08:37:32.269Z,77.47
2023-05-15T08:38:32.272Z,77.97
2023-05-15T08:39:32.243Z,76.62
2023-05-15T08:40:39.312Z,75.81
2023-05-15T08:41:40.695Z,74.50
2023-05-15T08:42:34.416Z,74.60
2023-05-15T08:43:32.206Z,74.50
2023-05-15T08:44:32.182Z,73.69
2023-05-15T08:45:32.184Z,73.96
2023-05-15T08:46:32.188Z,73.46
2023-05-15T08:47:32.172Z,72.55
2023-05-15T08:48:32.251Z,72.85
2023-05-15T08:49:32.129Z,73.66
2023-05-15T08:50:32.138Z,72.85
2023-05-15T08:51:32.104Z,71.17
2023-05-15T08:52:32.089Z,71.67
2023-05-15T08:53:32.077Z,71.87
2023-05-15T08:54:32.084Z,72.08
2023-05-15T08:55:32.167Z,72.28
2023-05-15T08:56:32.041Z,71.80
2023-05-15T08:57:32.028Z,72.31
2023-05-15T08:58:32.018Z,73.52
2023-05-15T08:59:32.012Z,73.72
2023-05-15T09:00:31.980Z,72.72
2023-05-15T09:01:31.987Z,73.63
2023-05-15T09:02:32.031Z,74.23
2023-05-15T09:03:32.040Z,74.54
2023-05-15T09:04:31.939Z,74.40
2023-05-15T09:05:31.947Z,74.19
2023-05-15T09:06:31.907Z,73.46
2023-05-15T09:07:31.882Z,71.03
2023-05-15T09:08:31.892Z,71.44
2023-05-15T09:09:31.865Z,71.23
2023-05-15T09:10:31.893Z,72.21
2023-05-15T09:11:31.855Z,71.70
2023-05-15T09:12:31.843Z,71.40
2023-05-15T09:13:31.839Z,71.40
2023-05-15T09:14:31.818Z,70.79
2023-05-15T09:15:31.791Z,71.10
2023-05-15T09:16:31.810Z,72.38
2023-05-15T09:17:31.803Z,69.65
2023-05-15T09:18:31.828Z,69.15
2023-05-15T09:19:31.752Z,69.85
2023-05-15T09:20:31.756Z,67.63
2023-05-15T09:21:31.732Z,67.60
2023-05-15T09:22:31.710Z,67.16
2023-05-15T09:23:31.679Z,66.76
2023-05-15T09:24:31.685Z,68.54
2023-05-15T09:25:31.676Z,68.85
2023-05-15T09:26:31.665Z,67.23
2023-05-15T09:27:31.644Z,65.01
2023-05-15T09:28:31.659Z,65.42
2023-05-15T09:29:31.615Z,66.05
2023-05-15T09:30:31.623Z,66.56
2023-05-15T09:31:31.760Z,66.86
2023-05-15T09:32:31.632Z,68.17
2023-05-15T09:33:31.591Z,68.07
2023-05-15T09:34:31.567Z,66.59
2023-05-15T09:35:31.761Z,65.68
2023-05-15T09:36:31.537Z,67.19
2023-05-15T09:37:31.524Z,67.23
2023-05-15T09:38:31.490Z,66.52
2023-05-15T09:39:31.488Z,67.40
2023-05-15T09:40:31.471Z,67.10
2023-05-15T09:41:31.459Z,66.56
2023-05-15T09:42:31.431Z,66.56
2023-05-15T09:43:31.425Z,67.54
2023-05-15T09:44:31.413Z,65.39
2023-05-15T09:45:31.472Z,63.67
2023-05-15T09:46:31.419Z,62.44
2023-05-15T09:47:31.461Z,64.35
2023-05-15T10:03:39.588Z,59.53
2023-05-15T10:04:39.574Z,62.88
2023-05-15T10:05:43.728Z,62.41
2023-05-15T10:06:42.018Z,63.21
2023-05-15T10:07:39.522Z,63.95
2023-05-15T10:08:39.513Z,63.78
2023-05-15T10:09:39.512Z,67.54
2023-05-15T10:10:39.524Z,68.37
2023-05-15T10:11:39.476Z,69.55
2023-05-15T10:12:39.465Z,71.53
2023-05-15T10:13:39.455Z,73.83
2023-05-15T10:14:39.445Z,75.38
2023-05-15T10:15:39.481Z,77.24
2023-05-15T10:16:39.531Z,77.21
2023-05-15T10:17:39.459Z,80.35
2023-05-15T10:18:39.434Z,81.81
2023-05-15T10:19:47.186Z,81.60
2023-05-15T10:20:40.359Z,81.60
2023-05-15T10:21:39.341Z,82.45
2023-05-15T10:22:39.511Z,84.89
2023-05-15T10:23:39.324Z,84.58
2023-05-15T10:24:39.314Z,84.52
2023-05-15T10:25:39.285Z,85.33
2023-05-15T10:26:39.355Z,85.94
2023-05-15T10:27:39.275Z,85.94
2023-05-15T10:28:39.267Z,87.26
2023-05-15T10:29:39.241Z,87.46
2023-05-15T10:30:39.231Z,87.57
2023-05-15T10:31:39.261Z,86.76
2023-05-15T10:32:39.255Z,84.93
2023-05-15T10:33:39.220Z,85.33
2023-05-15T10:34:39.176Z,83.91
2023-05-15T10:35:39.163Z,83.51
2023-05-15T10:36:39.170Z,83.31
2023-05-15T10:37:39.150Z,83.20
2023-05-15T10:38:39.125Z,83.20
2023-05-15T10:39:39.122Z,84.83
2023-05-15T10:40:39.096Z,84.22
2023-05-15T10:41:39.112Z,84.22
2023-05-15T10:42:39.067Z,85.24
2023-05-15T10:43:39.073Z,85.13
2023-05-15T10:44:39.037Z,85.24
2023-05-15T10:45:39.044Z,85.03
2023-05-15T10:46:39.083Z,85.13
2023-05-15T10:47:39.028Z,86.25
2023-05-15T10:48:39.135Z,86.05
2023-05-15T10:49:38.987Z,86.41
2023-05-15T10:50:38.970Z,85.70
2023-05-15T10:51:38.965Z,84.38
2023-05-15T10:52:38.951Z,83.57
2023-05-15T10:53:38.947Z,82.45
2023-05-15T10:54:38.909Z,82.05
2023-05-15T10:55:38.908Z,81.34
2023-05-15T10:56:38.907Z,81.64
2023-05-15T10:57:38.877Z,82.35
2023-05-15T10:58:38.908Z,83.67
2023-05-15T10:59:38.848Z,82.05
2023-05-15T11:00:38.848Z,82.66
2023-05-15T11:01:38.914Z,83.12
2023-05-15T11:02:38.845Z,82.92
2023-05-15T11:03:48.654Z,83.83
2023-05-15T11:04:39.807Z,84.14
2023-05-15T11:05:38.772Z,83.83
2023-05-15T11:06:38.758Z,84.41
2023-05-15T11:07:38.742Z,84.41
2023-05-15T11:08:38.736Z,84.20
2023-05-15T11:09:38.722Z,84.41
2023-05-15T11:10:38.710Z,84.47
2023-05-15T11:11:38.683Z,83.45
2023-05-15T11:12:38.667Z,83.25
2023-05-15T11:13:38.659Z,83.31
2023-05-15T11:14:38.654Z,80.98
2023-05-15T11:15:38.652Z,81.79
2023-05-15T11:16:38.618Z,83.01
2023-05-15T11:17:38.636Z,81.90
2023-05-15T11:18:38.689Z,82.81
2023-05-15T11:19:38.584Z,82.06
2023-05-15T11:20:38.568Z,80.84
2023-05-15T11:21:38.556Z,80.24
2023-05-15T11:22:38.536Z,76.19
2023-05-15T11:23:38.537Z,74.87
2023-05-15T11:24:38.516Z,75.55
2023-05-15T11:25:38.504Z,76.46
2023-05-15T11:26:38.480Z,75.45
2023-05-15T11:27:38.488Z,75.51
2023-05-15T11:28:38.465Z,71.17
2023-05-15T11:29:38.442Z,72.78
2023-05-15T11:30:38.490Z,71.53
2023-05-15T11:31:38.460Z,71.73
2023-05-15T11:32:38.468Z,73.58
2023-05-15T11:33:38.434Z,73.15
2023-05-15T11:34:38.376Z,72.61
2023-05-15T11:35:38.382Z,68.95
2023-05-15T11:36:38.360Z,72.34
2023-05-15T11:37:38.344Z,68.08
2023-05-15T11:38:38.336Z,67.47
2023-05-15T11:39:38.305Z,69.76
2023-05-15T11:40:38.429Z,65.76
2023-05-15T11:41:38.285Z,66.36
2023-05-15T11:42:38.289Z,66.87
2023-05-15T11:43:38.280Z,69.89
2023-05-15T11:44:38.249Z,67.77
2023-05-15T11:45:38.254Z,70.59
2023-05-15T11:46:38.255Z,71.64
2023-05-15T11:47:38.255Z,67.10
2023-05-15T11:48:38.200Z,69.45
2023-05-15T11:49:38.181Z,66.63
2023-05-15T11:50:38.182Z,66.83
2023-05-15T11:51:38.177Z,68.74
2023-05-15T11:52:38.172Z,66.73
2023-05-15T11:53:38.146Z,67.33
2023-05-15T11:54:38.122Z,67.43
2023-05-15T11:55:38.109Z,67.80
2023-05-15T11:56:38.106Z,68.38
2023-05-15T11:57:38.119Z,70.16
2023-05-15T11:58:38.077Z,69.99
2023-05-15T11:59:38.072Z,67.04
2023-05-15T12:00:38.041Z,65.50
2023-05-15T12:01:38.036Z,67.58
2023-05-15T12:02:38.102Z,64.64
2023-05-15T12:03:38.389Z,62.73
2023-05-15T12:04:38.039Z,66.61
2023-05-15T12:05:42.253Z,68.59
2023-05-15T12:06:38.985Z,62.07
2023-05-15T12:07:37.970Z,61.04
2023-05-15T12:08:37.941Z,58.83
2023-05-15T12:09:37.942Z,62.54
2023-05-15T12:10:37.920Z,60.91
2023-05-15T12:11:37.919Z,62.21
2023-05-15T12:12:37.903Z,58.30
2023-05-15T12:13:37.912Z,61.18
2023-05-15T12:14:37.866Z,57.95
2023-05-15T12:15:37.868Z,56.55
2023-05-15T12:16:37.893Z,53.94
2023-05-15T12:17:37.834Z,57.42
2023-05-15T12:18:37.857Z,56.62
2023-05-15T12:19:37.817Z,53.82
2023-05-15T12:20:37.813Z,54.10
2023-05-15T12:21:37.936Z,53.79
2023-05-15T12:22:37.774Z,54.39
2023-05-15T12:23:37.766Z,51.57
2023-05-15T12:24:37.732Z,54.86
2023-05-15T12:25:37.745Z,56.96
2023-05-15T12:26:37.726Z,57.07
2023-05-15T12:27:37.710Z,53.54
2023-05-15T12:28:37.694Z,55.44
2023-05-15T12:29:37.681Z,54.84
2023-05-15T12:30:37.681Z,52.52
2023-05-15T12:31:37.758Z,53.31
2023-05-15T12:32:37.698Z,52.62
2023-05-15T12:33:37.635Z,51.47
2023-05-15T12:34:37.618Z,52.04
2023-05-15T12:35:37.620Z,52.97
2023-05-15T12:36:37.591Z,53.79
2023-05-15T12:37:37.584Z,51.72
2023-05-15T12:38:37.567Z,53.34
2023-05-15T12:39:37.569Z,55.70
2023-05-15T12:40:37.523Z,56.73
2023-05-15T12:41:37.523Z,57.66
2023-05-15T12:42:37.549Z,58.46
2023-05-15T12:43:37.501Z,60.16
2023-05-15T12:44:37.480Z,59.26
2023-05-15T12:45:37.496Z,59.46
2023-05-15T12:46:37.517Z,58.69
2023-05-15T12:47:37.462Z,59.39
2023-05-15T12:48:37.430Z,60.42
2023-05-15T12:49:37.436Z,58.64
2023-05-15T12:50:37.397Z,58.54
2023-05-15T12:51:37.398Z,60.18
2023-05-15T12:52:37.386Z,58.70
2023-05-15T12:53:37.392Z,59.83
2023-05-15T12:54:37.361Z,59.26
2023-05-15T12:55:37.370Z,59.69
2023-05-15T12:56:37.327Z,59.99
2023-05-15T12:57:37.323Z,61.93
2023-05-15T12:58:37.307Z,62.44
2023-05-15T12:59:37.293Z,61.23
2023-05-15T13:00:37.269Z,60.93
2023-05-15T13:01:37.286Z,61.73
2023-05-15T13:02:37.337Z,60.83
2023-05-15T13:03:37.455Z,62.34
2023-05-15T13:04:37.236Z,60.72
2023-05-15T13:05:37.206Z,60.72
2023-05-15T13:06:45.760Z,61.33
2023-05-15T13:07:38.197Z,60.22
2023-05-15T13:08:37.188Z,60.72
2023-05-15T13:09:37.155Z,63.31
2023-05-15T13:10:37.144Z,61.90
2023-05-15T13:11:37.124Z,61.23
2023-05-15T13:12:37.126Z,64.25
2023-05-15T13:13:37.110Z,64.25
2023-05-15T13:14:37.086Z,64.95
2023-05-15T13:15:37.312Z,64.45
2023-05-15T13:16:37.071Z,62.64
2023-05-15T13:17:37.077Z,65.56
2023-05-15T13:18:37.055Z,63.21
2023-05-15T13:19:37.021Z,63.92
2023-05-15T13:20:37.000Z,62.71